Time;durP1;ratioP1;P1;durP2;ratioP2;P2;SDS_P1;SDS_P2;PMS_P1;PMS_P2;Temp;Humidity;BMP_temperature;BMP_pressure;BME280_temperature;BME280_humidity;BME280_pressure;Samples;Min_cycle;Max_cycle;Signal;HPM_P1;HPM_P2
2024/01/12 00:02:02;;;;;;;0.70;0.70;;;;;;;0.41;83.70;99363.41;5090441;28;20191;-69
2024/01/12 00:04:30;;;;;;;0.80;0.80;;;;;;;0.37;84.29;99371.78;5106359;28;20194;-69
2024/01/12 00:06:56;;;;;;;0.67;0.67;;;;;;;0.34;83.68;99374.28;5098036;28;20210;-69
2024/01/12 00:09:23;;;;;;;1.53;1.40;;;;;;;0.31;83.84;99386.84;5110745;28;20251;-69
2024/01/12 00:11:50;;;;;;;1.13;1.13;;;;;;;0.29;83.96;99369.16;5096457;28;20637;-69
2024/01/12 00:14:17;;;;;;;1.60;1.50;;;;;;;0.30;84.35;99385.16;5100334;28;20202;-71
2024/01/12 00:16:44;;;;;;;0.70;0.70;;;;;;;0.30;84.58;99380.09;5104335;28;20199;-69
2024/01/12 00:19:11;;;;;;;1.07;1.07;;;;;;;0.26;85.14;99384.25;5090780;28;20207;-68
2024/01/12 00:21:39;;;;;;;0.73;0.73;;;;;;;0.19;85.59;99376.63;5091550;28;20195;-69
2024/01/12 00:24:06;;;;;;;0.80;0.80;;;;;;;0.07;85.79;99366.41;5106435;28;20564;-69
2024/01/12 00:26:32;;;;;;;2.37;1.90;;;;;;;0.14;85.98;99368.16;5090407;28;20199;-69
2024/01/12 00:28:59;;;;;;;0.73;0.73;;;;;;;0.14;85.83;99378.25;5090438;28;20203;-70
2024/01/12 00:31:26;;;;;;;0.63;0.63;;;;;;;0.12;86.64;99367.31;5095915;28;20199;-69
2024/01/12 00:33:53;;;;;;;1.03;1.03;;;;;;;-0.19;87.73;99330.84;5090699;28;20632;-69
2024/01/12 00:36:20;;;;;;;1.00;1.00;;;;;;;0.04;89.16;99381.50;5090159;28;20199;-70
2024/01/12 00:38:48;;;;;;;0.63;0.63;;;;;;;0.02;89.32;99378.13;5087626;28;20203;-69
2024/01/12 00:41:14;;;;;;;0.60;0.60;;;;;;;0.01;88.45;99372.22;5097622;28;20251;-70
2024/01/12 00:43:41;;;;;;;0.80;0.80;;;;;;;0.03;86.66;99363.03;5114644;28;20202;-69
2024/01/12 00:46:08;;;;;;;1.00;1.00;;;;;;;-0.02;85.46;99347.84;5114112;28;20206;-69
2024/01/12 00:48:35;;;;;;;0.70;0.70;;;;;;;0.11;84.86;99368.97;5094920;28;20695;-69
2024/01/12 00:51:01;;;;;;;0.63;0.63;;;;;;;0.05;85.20;99368.91;5093748;28;20207;-69
2024/01/12 00:53:28;;;;;;;0.77;0.77;;;;;;;0.06;84.47;99372.28;5093992;28;20215;-69
2024/01/12 00:55:56;;;;;;;0.97;0.97;;;;;;;0.03;84.78;99369.75;5091646;28;20195;-69
2024/01/12 00:58:23;;;;;;;0.60;0.60;;;;;;;0.04;84.33;99361.31;5102806;28;20255;-69
2024/01/12 01:00:50;;;;;;;0.67;0.67;;;;;;;0.04;84.25;99368.88;5110059;28;20233;-69
2024/01/12 01:03:16;;;;;;;0.77;0.77;;;;;;;0.05;84.13;99378.16;5093859;28;20195;-69
2024/01/12 01:05:43;;;;;;;0.60;0.60;;;;;;;0.05;83.33;99383.19;5093663;28;20655;-69
2024/01/12 01:08:10;;;;;;;0.83;0.83;;;;;;;0.04;82.94;99384.84;5106892;28;20191;-69
2024/01/12 01:10:37;;;;;;;0.70;0.70;;;;;;;0.03;83.59;99387.38;5114233;28;20209;-69
2024/01/12 01:13:05;;;;;;;0.90;0.90;;;;;;;0.04;83.25;99381.50;5114359;28;20210;-69
2024/01/12 01:15:31;;;;;;;1.50;1.50;;;;;;;0.02;83.25;99393.25;5101034;28;20195;-69
2024/01/12 01:17:58;;;;;;;0.70;0.70;;;;;;;0.00;83.26;99391.53;5093656;28;20252;-69
2024/01/12 01:20:25;;;;;;;0.70;0.70;;;;;;;0.00;82.76;99404.13;5093755;28;20196;-69
2024/01/12 01:22:52;;;;;;;0.60;0.60;;;;;;;0.04;82.01;99401.66;5093311;28;20195;-69
2024/01/12 01:25:19;;;;;;;0.90;0.90;;;;;;;0.06;81.61;99394.97;5093764;28;20204;-69
2024/01/12 01:27:46;;;;;;;0.60;0.60;;;;;;;0.10;81.56;99401.75;5093312;28;20196;-69
2024/01/12 01:30:15;;;;;;;0.80;0.80;;;;;;;0.10;81.39;99401.75;5097092;28;20273;-69
2024/01/12 01:32:41;;;;;;;0.77;0.77;;;;;;;0.10;81.45;99396.72;5093132;28;20250;-69
2024/01/12 01:35:09;;;;;;;2.43;1.13;;;;;;;0.06;81.81;99385.75;5103111;28;20203;-69
2024/01/12 01:37:35;;;;;;;0.67;0.67;;;;;;;0.05;81.80;99378.16;5093750;28;20195;-69
2024/01/12 01:40:05;;;;;;;0.60;0.60;;;;;;;0.02;82.40;99384.00;5093124;28;20667;-69
2024/01/12 01:42:31;;;;;;;0.70;0.70;;;;;;;-0.01;82.45;99374.75;5093705;28;20187;-69
2024/01/12 01:44:58;;;;;;;0.70;0.70;;;;;;;0.00;82.91;99371.38;5093001;28;20256;-68
2024/01/12 01:47:26;;;;;;;0.83;0.83;;;;;;;-0.04;82.82;99367.16;5092770;28;20200;-69
2024/01/12 01:49:53;;;;;;;0.70;0.70;;;;;;;-0.08;82.02;99359.53;5093417;28;20199;-70
2024/01/12 01:52:21;;;;;;;0.77;0.77;;;;;;;-0.01;80.49;99362.16;5101248;28;20218;-69
2024/01/12 01:54:48;;;;;;;1.10;1.10;;;;;;;0.08;80.10;99358.03;5111854;28;20259;-69
2024/01/12 01:57:16;;;;;;;0.70;0.70;;;;;;;0.10;79.62;99356.38;5091623;28;20195;-69
2024/01/12 01:59:42;;;;;;;0.97;0.97;;;;;;;0.06;78.82;99340.38;5107171;28;20207;-69
2024/01/12 02:02:09;;;;;;;0.60;0.60;;;;;;;0.16;78.61;99351.41;5095849;28;20274;-68
2024/01/12 02:04:38;;;;;;;0.60;0.60;;;;;;;0.16;79.18;99347.22;5092723;28;20276;-69
2024/01/12 02:07:05;;;;;;;1.20;1.20;;;;;;;0.15;79.87;99344.66;5093036;28;20756;-69
2024/01/12 02:09:32;;;;;;;0.83;0.83;;;;;;;0.15;80.30;99350.56;5093094;28;20195;-69
2024/01/12 02:11:59;;;;;;;0.73;0.73;;;;;;;0.03;80.33;99325.22;5092882;28;20207;-69
2024/01/12 02:14:26;;;;;;;1.00;1.00;;;;;;;0.15;80.11;99327.03;5099821;28;20217;-69
2024/01/12 02:16:53;;;;;;;0.70;0.70;;;;;;;0.14;80.61;99322.81;5092030;28;20195;-69
2024/01/12 02:19:20;;;;;;;0.90;0.90;;;;;;;0.13;80.66;99311.06;5105130;28;20191;-69
2024/01/12 02:21:48;;;;;;;0.80;0.80;;;;;;;0.07;79.20;99298.38;5092504;28;20209;-69
2024/01/12 02:24:15;;;;;;;0.77;0.77;;;;;;;0.18;78.87;99301.84;5092269;28;20191;-68
2024/01/12 02:26:41;;;;;;;0.80;0.80;;;;;;;0.28;77.71;99306.16;5089614;28;20237;-69
2024/01/12 02:29:08;;;;;;;0.70;0.70;;;;;;;0.35;76.17;99311.28;5103673;28;20263;-69
2024/01/12 02:31:35;;;;;;;0.70;0.70;;;;;;;0.38;76.35;99307.94;5104043;28;20203;-69
2024/01/12 02:34:02;;;;;;;1.07;1.07;;;;;;;0.38;76.51;99310.44;5092466;28;20732;-69
2024/01/12 02:36:29;;;;;;;0.77;0.77;;;;;;;0.37;77.08;99308.75;5091899;28;20290;-69
2024/01/12 02:38:57;;;;;;;1.00;1.00;;;;;;;0.41;76.06;99316.38;5091761;28;20252;-69
2024/01/12 02:41:24;;;;;;;1.10;1.10;;;;;;;0.40;77.20;99312.13;5091765;28;20191;-68
2024/01/12 02:43:51;;;;;;;0.87;0.87;;;;;;;0.38;77.20;99308.78;5092043;28;20253;-69
2024/01/12 02:46:19;;;;;;;0.60;0.60;;;;;;;0.44;76.43;99308.81;5091956;28;20200;-69
2024/01/12 02:48:45;;;;;;;0.90;0.90;;;;;;;0.27;76.86;99285.13;5098452;28;20200;-69
2024/01/12 02:51:12;;;;;;;0.70;0.70;;;;;;;0.34;77.63;99296.97;5091836;28;20195;-70
2024/01/12 02:53:39;;;;;;;0.67;0.67;;;;;;;0.35;77.63;99307.91;5089672;28;20220;-69
2024/01/12 02:56:07;;;;;;;0.80;0.80;;;;;;;0.34;77.79;99312.09;5090001;28;20674;-69
2024/01/12 02:58:33;;;;;;;1.33;1.33;;;;;;;0.29;77.84;99307.84;5091132;28;20208;-69
2024/01/12 03:01:00;;;;;;;1.17;1.17;;;;;;;0.26;78.28;99302.78;5090773;28;20200;-69
2024/01/12 03:03:27;;;;;;;0.90;0.90;;;;;;;0.22;79.27;99311.13;5108459;28;20244;-69
2024/01/12 03:05:54;;;;;;;1.03;1.03;;;;;;;0.16;79.76;99308.56;5096489;28;20191;-68
2024/01/12 03:08:20;;;;;;;0.90;0.90;;;;;;;0.13;79.99;99300.97;5091275;28;20199;-69
2024/01/12 03:10:47;;;;;;;1.00;1.00;;;;;;;0.05;80.79;99297.50;5091284;28;20199;-69
2024/01/12 03:13:15;;;;;;;0.60;0.60;;;;;;;0.06;80.85;99299.22;5107124;28;20211;-69
2024/01/12 03:15:42;;;;;;;0.67;0.67;;;;;;;-0.10;81.25;99285.63;5091411;28;20664;-69
2024/01/12 03:18:09;;;;;;;1.33;1.33;;;;;;;-0.04;81.54;99304.16;5090974;28;20320;-69
2024/01/12 03:20:36;;;;;;;1.00;1.00;;;;;;;-0.07;81.27;99309.19;5106905;28;20194;-69
2024/01/12 03:23:02;;;;;;;0.87;0.87;;;;;;;-0.08;81.65;99306.63;5094524;28;20200;-69
2024/01/12 03:25:29;;;;;;;0.80;0.80;;;;;;;-0.11;82.01;99307.44;5091029;28;20252;-69
2024/01/12 03:27:56;;;;;;;0.90;0.90;;;;;;;-0.09;82.03;99309.97;5100550;28;20206;-69
2024/01/12 03:30:24;;;;;;;0.70;0.70;;;;;;;-0.13;82.13;99314.13;5097218;28;20204;-69
2024/01/12 03:32:51;;;;;;;0.70;0.70;;;;;;;-0.20;82.54;99316.56;5091915;28;20219;-69
2024/01/12 03:35:17;;;;;;;1.40;0.93;;;;;;;-0.23;82.33;99314.88;5093009;28;20199;-69
2024/01/12 03:37:45;;;;;;;0.83;0.83;;;;;;;-0.31;82.08;99295.44;5111405;28;20194;-69
2024/01/12 03:40:12;;;;;;;1.63;1.63;;;;;;;-0.22;82.22;99321.56;5095756;28;20230;-68
2024/01/12 03:42:39;;;;;;;1.20;1.20;;;;;;;-0.20;81.77;99319.94;5111511;28;20658;-69
2024/01/12 03:45:07;;;;;;;0.80;0.80;;;;;;;-0.21;81.54;99319.91;5100967;28;20199;-69
2024/01/12 03:47:35;;;;;;;0.90;0.90;;;;;;;-0.17;81.31;99317.47;5091055;28;20645;-69
2024/01/12 03:50:02;;;;;;;1.33;1.10;;;;;;;-0.22;81.49;99318.22;5090549;28;20192;-69
2024/01/12 03:52:28;;;;;;;0.80;0.80;;;;;;;-0.19;81.92;99324.13;5090663;28;20577;-69
2024/01/12 03:54:55;;;;;;;0.80;0.80;;;;;;;-0.26;82.75;99317.31;5090614;28;20675;-69
2024/01/12 03:57:22;;;;;;;1.17;1.17;;;;;;;-0.25;82.65;99323.22;5088192;28;20207;-68
2024/01/12 03:59:50;;;;;;;4.17;1.00;;;;;;;-0.28;82.59;99316.47;5090613;28;20203;-69
2024/01/12 04:02:17;;;;;;;0.97;0.97;;;;;;;-0.29;82.94;99317.28;5103443;28;20199;-68
2024/01/12 04:04:45;;;;;;;0.70;0.70;;;;;;;-0.32;83.08;99327.34;5105946;28;20608;-69
2024/01/12 04:07:12;;;;;;;0.70;0.70;;;;;;;-0.33;83.45;99330.69;5090550;28;20344;-69
2024/01/12 04:09:38;;;;;;;0.93;0.93;;;;;;;-0.37;83.49;99318.91;5090524;28;20632;-69
2024/01/12 04:12:06;;;;;;;1.23;1.23;;;;;;;-0.34;83.81;99325.63;5090456;28;20252;-69
2024/01/12 04:14:33;;;;;;;1.10;0.93;;;;;;;-0.35;84.57;99326.44;5089902;28;20268;-68
2024/01/12 04:16:59;;;;;;;0.70;0.70;;;;;;;-0.42;84.88;99315.44;5091488;28;20195;-69
2024/01/12 04:19:26;;;;;;;0.63;0.63;;;;;;;-0.42;84.98;99335.59;5094999;28;20195;-68
2024/01/12 04:21:54;;;;;;;0.90;0.90;;;;;;;-0.41;83.82;99337.31;5094408;28;20245;-69
2024/01/12 05:14:48;;;;;;;5.40;1.80;;;;;;;-0.27;79.83;99361.00;5091575;28;20307;-69
2024/01/12 05:17:15;;;;;;;1.30;1.20;;;;;;;-0.30;80.11;99366.00;5093234;28;20219;-69
2024/01/12 05:19:41;;;;;;;0.70;0.70;;;;;;;-0.29;80.20;99367.66;5098525;28;20194;-69
2024/01/12 05:22:08;;;;;;;0.80;0.80;;;;;;;-0.36;80.35;99365.91;5113772;28;20194;-69
2024/01/12 05:24:35;;;;;;;0.70;0.70;;;;;;;-0.34;79.80;99364.25;5114330;28;20205;-69
2024/01/12 05:27:01;;;;;;;0.80;0.80;;;;;;;-0.32;80.20;99377.69;5108508;28;20198;-69
2024/01/12 05:29:28;;;;;;;0.80;0.80;;;;;;;-0.46;79.75;99355.72;5104742;28;20597;-69
2024/01/12 05:31:56;;;;;;;0.80;0.80;;;;;;;-0.36;79.73;99378.50;5092079;28;20191;-69
2024/01/12 05:34:23;;;;;;;1.10;1.10;;;;;;;-0.39;79.80;99375.97;5093165;28;20669;-69
2024/01/12 05:36:49;;;;;;;0.60;0.60;;;;;;;-0.40;79.95;99370.88;5092947;28;20203;-69
2024/01/12 05:39:16;;;;;;;1.70;1.33;;;;;;;-0.39;79.52;99375.97;5106217;28;20615;-69
2024/01/12 05:41:43;;;;;;;0.90;0.90;;;;;;;-0.41;79.41;99372.56;5093987;28;20305;-69
2024/01/12 05:44:10;;;;;;;0.60;0.60;;;;;;;-0.50;79.73;99369.91;5093480;28;20187;-69
2024/01/12 05:46:36;;;;;;;0.73;0.73;;;;;;;-0.44;79.48;99376.69;5092999;28;20204;-69
2024/01/12 05:49:05;;;;;;;0.80;0.80;;;;;;;-0.41;79.63;99391.84;5093073;28;20195;-69
2024/01/12 05:51:31;;;;;;;0.70;0.70;;;;;;;-0.48;79.90;99378.31;5109783;28;20253;-69
2024/01/12 05:53:58;;;;;;;1.27;1.27;;;;;;;-0.50;79.29;99390.06;5106261;28;20291;-69
2024/01/12 05:56:25;;;;;;;0.87;0.87;;;;;;;-0.57;79.29;99376.53;5092711;28;20316;-70
2024/01/12 05:58:51;;;;;;;0.80;0.80;;;;;;;-0.46;79.19;99389.28;5093443;28;20248;-69
2024/01/12 06:01:18;;;;;;;0.73;0.73;;;;;;;-0.45;79.15;99392.66;5103630;28;20203;-69
2024/01/12 06:03:45;;;;;;;0.80;0.80;;;;;;;-0.42;79.55;99396.03;5096591;28;20267;-68
2024/01/12 06:06:14;;;;;;;0.70;0.70;;;;;;;-0.44;79.17;99396.84;5105337;28;20632;-68
2024/01/12 06:08:41;;;;;;;0.60;0.60;;;;;;;-0.45;79.24;99405.25;5098249;28;20194;-68
2024/01/12 06:11:07;;;;;;;1.63;0.90;;;;;;;-0.45;79.65;99405.25;5102392;28;20241;-68
2024/01/12 06:13:34;;;;;;;1.00;1.00;;;;;;;-0.47;79.74;99401.84;5090193;28;20272;-66
2024/01/12 06:16:02;;;;;;;0.70;0.70;;;;;;;-0.47;80.09;99405.22;5091050;28;20231;-69
2024/01/12 06:18:28;;;;;;;1.57;1.57;;;;;;;-0.52;80.43;99399.28;5093758;28;20205;-69
2024/01/12 06:20:55;;;;;;;1.37;1.37;;;;;;;-0.56;81.12;99398.38;5091042;28;20195;-69
2024/01/12 06:23:23;;;;;;;1.33;1.33;;;;;;;-0.57;80.96;99396.69;5091154;28;20704;-69
2024/01/12 06:25:50;;;;;;;1.27;1.27;;;;;;;-0.57;80.82;99400.88;5096640;28;20225;-69
2024/01/12 06:28:16;;;;;;;1.53;1.53;;;;;;;-0.52;79.85;99410.16;5097826;28;20633;-69
2024/01/12 06:30:43;;;;;;;0.70;0.70;;;;;;;-0.47;79.41;99417.78;5096102;28;20210;-69
2024/01/12 06:33:10;;;;;;;0.60;0.60;;;;;;;-0.39;79.17;99420.44;5090845;28;20229;-69
2024/01/12 06:35:39;;;;;;;1.10;1.10;;;;;;;-0.36;79.40;99431.41;5091551;28;20211;-71
2024/01/12 06:38:06;;;;;;;0.87;0.87;;;;;;;-0.28;79.14;99432.34;5091009;28;20211;-69
2024/01/12 06:40:34;;;;;;;1.73;1.73;;;;;;;-0.23;79.46;99443.34;5090880;28;20258;-69
2024/01/12 06:43:01;;;;;;;0.97;0.97;;;;;;;-0.19;79.21;99440.00;5092954;28;20568;-69
2024/01/12 06:45:27;;;;;;;1.23;1.23;;;;;;;-0.15;79.48;99450.97;5098959;28;20557;-69
2024/01/12 06:47:54;;;;;;;1.10;1.10;;;;;;;-0.10;79.89;99459.47;5104455;28;20268;-70
2024/01/12 06:50:21;;;;;;;0.70;0.70;;;;;;;-0.05;79.39;99453.63;5097604;28;20203;-69
2024/01/12 06:52:47;;;;;;;0.77;0.77;;;;;;;-0.04;79.23;99455.34;5092095;28;20199;-69
2024/01/12 06:55:14;;;;;;;0.90;0.90;;;;;;;0.06;80.26;99458.81;5098144;28;20215;-69
2024/01/12 06:57:43;;;;;;;1.13;1.13;;;;;;;0.05;80.45;99453.75;5102176;28;20292;-70
2024/01/12 07:00:11;;;;;;;1.75;1.65;;;;;;;0.22;80.96;99463.22;5093181;28;20443;-65
2024/01/12 07:02:37;;;;;;;1.30;1.20;;;;;;;0.41;80.03;99459.25;5097884;28;20252;-65
2024/01/12 07:05:05;;;;;;;0.80;0.80;;;;;;;0.53;79.58;99469.44;5098749;28;20199;-65
2024/01/12 07:07:31;;;;;;;1.10;1.10;;;;;;;0.66;79.11;99473.78;5087747;28;20199;-65
2024/01/12 07:09:58;;;;;;;2.93;2.73;;;;;;;0.79;78.88;99465.53;5098111;28;20860;-67
2024/01/12 07:12:25;;;;;;;0.97;0.97;;;;;;;1.01;77.56;99474.97;5091708;28;20265;-68
2024/01/12 07:14:53;;;;;;;0.90;0.90;;;;;;;1.08;77.99;99470.84;5090657;28;20223;-68
2024/01/12 07:17:20;;;;;;;0.70;0.70;;;;;;;1.12;77.23;99466.66;5093629;28;20698;-68
2024/01/12 07:19:46;;;;;;;0.70;0.70;;;;;;;1.20;77.02;99475.13;5093213;28;20199;-68
2024/01/12 07:22:13;;;;;;;0.80;0.80;;;;;;;1.16;78.09;99466.72;5094446;28;20211;-68
2024/01/12 07:24:40;;;;;;;1.20;1.20;;;;;;;1.22;79.46;99476.00;5088686;28;20282;-68
2024/01/12 07:27:07;;;;;;;1.63;1.63;;;;;;;1.29;78.72;99470.19;5101536;28;20199;-68
2024/01/12 07:29:34;;;;;;;0.90;0.90;;;;;;;1.31;78.80;99479.47;5088859;28;20256;-68
2024/01/12 07:32:02;;;;;;;0.80;0.80;;;;;;;1.27;78.37;99477.72;5093462;28;20206;-68
2024/01/12 07:34:29;;;;;;;0.73;0.73;;;;;;;1.16;79.06;99473.44;5094702;28;20249;-68
2024/01/12 07:36:55;;;;;;;0.60;0.60;;;;;;;1.22;78.67;99488.63;5092642;28;20680;-68
2024/01/12 07:39:22;;;;;;;1.43;1.43;;;;;;;1.25;78.92;99496.22;5095102;28;20206;-67
2024/01/12 07:41:49;;;;;;;0.70;0.70;;;;;;;1.23;79.46;99500.44;5092892;28;20198;-68
2024/01/12 07:44:15;;;;;;;2.50;2.30;;;;;;;1.27;79.84;99512.22;5095901;28;20508;-65
2024/01/12 07:46:42;;;;;;;0.97;0.97;;;;;;;1.29;78.50;99511.44;5101174;28;20213;-65
2024/01/12 07:49:10;;;;;;;1.03;1.03;;;;;;;1.26;79.27;99511.38;5104530;28;20256;-65
2024/01/12 07:51:37;;;;;;;0.80;0.80;;;;;;;1.28;78.93;99513.94;5097320;28;20195;-65
2024/01/12 07:54:04;;;;;;;0.73;0.73;;;;;;;1.17;79.61;99511.31;5092850;28;20218;-65
2024/01/12 07:56:31;;;;;;;5.17;1.47;;;;;;;1.28;77.27;99518.97;5098056;28;20195;-65
2024/01/12 07:58:57;;;;;;;2.10;2.00;;;;;;;1.33;76.57;99517.34;5098125;28;20452;-70
2024/01/12 08:01:24;;;;;;;0.93;0.93;;;;;;;1.47;75.64;99520.81;5091346;28;20211;-68
2024/01/12 08:03:51;;;;;;;0.87;0.87;;;;;;;1.61;76.20;99526.00;5087878;28;20268;-69
2024/01/12 08:06:20;;;;;;;1.77;1.20;;;;;;;1.66;75.77;99525.19;5091862;28;20691;-69
2024/01/12 08:08:46;;;;;;;1.00;1.00;;;;;;;1.61;76.78;99509.16;5090101;28;20220;-69
2024/01/12 08:11:13;;;;;;;0.70;0.70;;;;;;;1.80;75.67;99538.78;5090030;28;20252;-70
2024/01/12 08:13:40;;;;;;;1.03;1.03;;;;;;;1.91;75.23;99543.88;5095357;28;20588;-70
2024/01/12 08:16:07;;;;;;;1.03;1.03;;;;;;;1.93;74.43;99548.13;5090204;28;20651;-71
2024/01/12 08:18:34;;;;;;;0.60;0.60;;;;;;;2.00;72.94;99557.44;5094785;28;20630;-71
2024/01/12 08:21:00;;;;;;;1.20;1.20;;;;;;;2.08;74.34;99563.41;5092071;28;20200;-71
2024/01/12 08:23:28;;;;;;;0.77;0.77;;;;;;;2.16;73.30;99549.97;5093667;28;20256;-70
2024/01/12 08:25:55;;;;;;;1.27;1.27;;;;;;;2.17;71.82;99564.28;5087221;28;20198;-71
2024/01/12 08:28:22;;;;;;;0.73;0.73;;;;;;;2.15;71.71;99558.38;5094695;28;20255;-71
2024/01/12 08:30:49;;;;;;;0.60;0.60;;;;;;;2.13;73.00;99561.72;5090809;28;20214;-71
2024/01/12 08:33:15;;;;;;;1.30;1.30;;;;;;;2.26;73.78;99559.28;5089943;28;20206;-71
2024/01/12 08:35:42;;;;;;;0.90;0.90;;;;;;;2.32;72.25;99562.69;5089213;28;20310;-72
2024/01/12 08:38:09;;;;;;;0.90;0.90;;;;;;;2.33;72.61;99561.84;5085203;28;20343;-72
2024/01/12 08:40:37;;;;;;;0.90;0.90;;;;;;;2.42;72.15;99563.59;5090736;28;20206;-72
2024/01/12 08:43:05;;;;;;;0.63;0.63;;;;;;;2.50;72.84;99559.41;5088590;28;20248;-71
2024/01/12 08:45:32;;;;;;;1.43;1.43;;;;;;;2.53;71.31;99577.13;5090331;28;20207;-72
2024/01/12 08:47:59;;;;;;;0.70;0.70;;;;;;;2.59;71.29;99575.47;5094511;28;20207;-70
2024/01/12 08:50:26;;;;;;;2.58;1.98;;;;;;;2.73;71.63;99575.53;5093122;28;20447;-66
2024/01/12 08:52:53;;;;;;;1.90;1.80;;;;;;;2.84;69.88;99578.97;5096172;28;20207;-65
2024/01/12 08:55:19;;;;;;;1.20;1.20;;;;;;;2.91;70.48;99580.66;5093493;28;20298;-65
2024/01/12 08:57:48;;;;;;;1.20;1.20;;;;;;;2.97;70.80;99583.19;5097352;28;20268;-66
2024/01/12 09:00:16;;;;;;;3.33;2.97;;;;;;;3.05;70.20;99579.03;5089578;28;20454;-67
2024/01/12 09:02:43;;;;;;;4.73;1.57;;;;;;;3.25;69.77;99583.28;5091211;28;20206;-67
2024/01/12 09:05:11;;;;;;;0.97;0.97;;;;;;;3.29;68.67;99587.53;5103672;28;20199;-67
2024/01/12 09:07:38;;;;;;;1.03;1.03;;;;;;;3.33;68.83;99587.50;5099762;28;20202;-67
2024/01/12 09:10:07;;;;;;;1.50;1.50;;;;;;;3.42;69.00;99599.38;5093038;28;20195;-67
2024/01/12 09:12:34;;;;;;;4.67;1.00;;;;;;;3.45;68.32;99600.22;5097649;28;20207;-67
2024/01/12 09:15:02;;;;;;;0.60;0.60;;;;;;;3.51;69.39;99599.38;5092917;28;20215;-67
2024/01/12 09:17:29;;;;;;;0.53;0.53;;;;;;;3.58;69.14;99606.16;5095781;28;20208;-67
2024/01/12 09:19:56;;;;;;;0.97;0.97;;;;;;;3.64;68.44;99601.09;5091497;28;20203;-67
2024/01/12 09:22:23;;;;;;;0.87;0.87;;;;;;;3.68;66.88;99602.78;5096307;28;20205;-67
2024/01/12 09:24:49;;;;;;;0.77;0.77;;;;;;;3.66;67.32;99604.44;5090072;28;20199;-67
2024/01/12 09:27:16;;;;;;;0.70;0.70;;;;;;;3.71;66.54;99602.78;5089197;28;20256;-67
2024/01/12 09:29:43;;;;;;;0.57;0.57;;;;;;;3.75;66.13;99593.50;5091922;28;20203;-67
2024/01/12 09:32:11;;;;;;;0.50;0.50;;;;;;;3.80;67.83;99592.63;5090875;28;20675;-67
2024/01/12 09:34:38;;;;;;;0.90;0.90;;;;;;;3.89;69.20;99587.56;5090798;28;20637;-67
2024/01/12 09:37:06;;;;;;;1.97;1.47;;;;;;;3.96;68.33;99586.72;5092890;28;20226;-67
2024/01/12 09:39:33;;;;;;;0.60;0.60;;;;;;;4.06;67.17;99588.41;5102329;28;20551;-67
2024/01/12 09:42:02;;;;;;;0.50;0.50;;;;;;;4.10;66.85;99602.75;5096417;28;20212;-68
2024/01/12 09:44:29;;;;;;;1.17;1.17;;;;;;;4.13;66.54;99592.63;5092926;28;20295;-68
2024/01/12 09:46:57;;;;;;;1.00;1.00;;;;;;;4.19;67.92;99587.53;5097110;28;20578;-67
2024/01/12 09:49:29;;;;;;;0.60;0.60;;;;;;;4.24;67.65;99580.75;5094466;28;20257;-67
2024/01/12 09:51:56;;;;;;;0.80;0.80;;;;;;;4.38;68.72;99587.50;5098433;28;20703;-67
2024/01/12 09:54:23;;;;;;;1.17;1.10;;;;;;;4.48;67.16;99594.25;5090406;28;20199;-68
2024/01/12 09:56:52;;;;;;;0.70;0.70;;;;;;;4.52;66.27;99590.84;5092307;28;20639;-67
2024/01/12 09:59:22;;;;;;;1.00;1.00;;;;;;;4.56;65.37;99593.34;5090436;28;20248;-67
2024/01/12 10:01:49;;;;;;;1.20;1.20;;;;;;;4.59;65.61;99587.41;5091058;28;20203;-68
2024/01/12 10:04:16;;;;;;;0.93;0.93;;;;;;;4.71;67.99;99587.41;5095864;28;20265;-67
2024/01/12 10:06:44;;;;;;;0.70;0.70;;;;;;;4.73;65.12;99600.91;5094606;28;20557;-67
2024/01/12 10:09:11;;;;;;;0.73;0.73;;;;;;;4.77;65.87;99602.59;5101395;28;20649;-68
2024/01/12 10:11:37;;;;;;;1.20;1.20;;;;;;;4.74;66.08;99602.63;5088019;28;20264;-67
2024/01/12 10:14:04;;;;;;;1.10;1.10;;;;;;;4.89;66.54;99607.63;5089791;28;20725;-67
2024/01/12 10:16:31;;;;;;;0.70;0.70;;;;;;;5.00;65.82;99605.91;5097421;28;20225;-67
2024/01/12 10:18:58;;;;;;;6.33;1.50;;;;;;;5.17;65.45;99603.28;5098761;28;20203;-67
2024/01/12 10:21:25;;;;;;;0.70;0.70;;;;;;;5.34;65.20;99604.00;5093625;28;20199;-67
2024/01/12 10:24:02;;;;;;;2.43;1.37;;;;;;;5.51;64.11;99609.00;5095318;28;20202;-66
2024/01/12 10:26:29;;;;;;;0.90;0.90;;;;;;;5.64;63.69;99606.38;5093074;28;20195;-69
2024/01/12 10:28:55;;;;;;;1.20;1.20;;;;;;;5.69;64.94;99593.59;5093530;28;20272;-69
2024/01/12 10:31:22;;;;;;;0.97;0.97;;;;;;;5.59;63.42;99607.25;5090475;28;20257;-70
2024/01/12 10:33:49;;;;;;;0.83;0.83;;;;;;;5.50;63.01;99602.22;5090401;28;20264;-70
2024/01/12 10:36:21;;;;;;;1.00;1.00;;;;;;;5.54;65.75;99603.88;5098990;28;20215;-69
2024/01/12 10:38:50;;;;;;;1.00;1.00;;;;;;;5.56;65.58;99609.81;5110755;28;20222;-67
2024/01/12 10:41:22;;;;;;;2.87;1.50;;;;;;;5.65;65.09;99617.38;5102909;28;20264;-69
2024/01/12 10:43:52;;;;;;;0.70;0.63;;;;;;;5.62;63.70;99604.69;5092043;28;20203;-70
2024/01/12 10:46:30;;;;;;;1.43;1.33;;;;;;;5.63;63.26;99614.00;5090462;28;20199;-69
2024/01/12 10:49:06;;;;;;;1.33;1.33;;;;;;;5.62;63.34;99602.16;5091659;28;20254;-70
2024/01/12 10:51:38;;;;;;;1.10;1.07;;;;;;;5.78;65.05;99593.56;5090873;28;20251;-70
2024/01/12 10:54:09;;;;;;;1.50;1.50;;;;;;;6.04;65.25;99601.81;5093165;28;20223;-69
2024/01/12 10:56:38;;;;;;;1.17;0.83;;;;;;;6.08;63.74;99592.47;5091794;28;20211;-69
2024/01/12 10:59:06;;;;;;;1.30;1.27;;;;;;;6.08;58.61;99598.41;5091928;28;20263;-70
2024/01/12 11:01:34;;;;;;;0.73;0.73;;;;;;;5.98;59.32;99594.25;5091939;28;20195;-69
2024/01/12 11:04:01;;;;;;;1.97;1.87;;;;;;;5.92;58.83;99591.75;5090999;28;20279;-69
2024/01/12 11:06:30;;;;;;;0.67;0.67;;;;;;;5.92;59.45;99591.75;5095707;28;20316;-70
2024/01/12 11:08:58;;;;;;;1.73;1.47;;;;;;;5.93;60.30;99588.38;5104234;28;20639;-69
2024/01/12 11:11:32;;;;;;;1.23;1.23;;;;;;;5.93;61.38;99593.47;5087919;28;20199;-69
2024/01/12 11:14:01;;;;;;;4.93;1.17;;;;;;;5.98;60.01;99596.78;5091505;28;20195;-69
2024/01/12 11:16:27;;;;;;;1.60;1.50;;;;;;;6.04;62.20;99581.47;5090924;28;20694;-70
2024/01/12 11:18:54;;;;;;;2.07;1.97;;;;;;;6.22;60.42;99594.03;5089621;28;20203;-70
2024/01/12 11:21:25;;;;;;;1.83;1.77;;;;;;;6.17;58.66;99598.31;5090884;28;20324;-70
2024/01/12 11:23:52;;;;;;;1.07;0.73;;;;;;;6.13;59.22;99581.41;5090521;28;20282;-71
2024/01/12 11:26:20;;;;;;;3.67;2.40;;;;;;;6.26;60.84;99592.31;5089968;28;20200;-70
2024/01/12 11:28:49;;;;;;;3.47;3.30;;;;;;;6.24;61.85;99584.66;5088668;28;20207;-70
2024/01/12 11:31:26;;;;;;;1.67;1.60;;;;;;;6.25;61.45;99591.47;5091362;28;20243;-71
2024/01/12 11:33:59;;;;;;;2.30;0.70;;;;;;;6.29;61.04;99588.03;5090606;28;20350;-71
2024/01/12 11:36:27;;;;;;;3.03;2.60;;;;;;;6.37;60.85;99595.56;5098307;28;20934;-67
2024/01/12 11:38:55;;;;;;;1.77;1.67;;;;;;;6.47;58.52;99601.41;5098091;28;20235;-66
2024/01/12 11:41:28;;;;;;;1.83;1.73;;;;;;;6.52;58.69;99600.53;5101696;28;20210;-66
2024/01/12 11:43:55;;;;;;;1.23;1.13;;;;;;;6.52;60.06;99599.69;5099962;28;20211;-66
2024/01/12 11:46:23;;;;;;;1.70;1.60;;;;;;;6.56;58.59;99598.81;5102204;28;20324;-66
2024/01/12 11:48:51;;;;;;;2.53;2.23;;;;;;;6.71;59.23;99603.72;5097694;28;20509;-70
2024/01/12 11:51:27;;;;;;;2.63;1.87;;;;;;;6.80;59.26;99601.06;5104475;28;20727;-70
2024/01/12 11:53:56;;;;;;;1.23;1.00;;;;;;;6.86;58.73;99603.53;5101906;28;20240;-69
2024/01/12 11:56:22;;;;;;;1.67;1.57;;;;;;;6.98;58.13;99597.44;5096565;28;20219;-69
2024/01/12 11:58:51;;;;;;;1.60;1.50;;;;;;;7.00;58.50;99594.00;5097185;28;20198;-69
2024/01/12 12:01:18;;;;;;;3.40;0.90;;;;;;;7.07;60.24;99603.28;5092736;28;20283;-69
2024/01/12 12:03:45;;;;;;;1.40;1.10;;;;;;;7.09;59.20;99609.19;5097256;28;20203;-69
2024/01/12 12:06:14;;;;;;;1.00;1.00;;;;;;;7.13;57.94;99603.19;5101422;28;20643;-69
2024/01/12 12:08:41;;;;;;;1.77;1.77;;;;;;;7.04;59.03;99600.75;5102033;28;20205;-69
2024/01/12 12:11:08;;;;;;;1.73;1.63;;;;;;;7.02;58.69;99602.47;5092066;28;20834;-68
2024/01/12 12:13:37;;;;;;;1.03;1.03;;;;;;;7.00;58.48;99600.81;5092802;28;20630;-69
2024/01/12 12:16:04;;;;;;;1.70;1.43;;;;;;;6.76;59.95;99604.50;5090805;28;20211;-68
2024/01/12 12:18:31;;;;;;;2.53;1.23;;;;;;;6.64;61.29;99607.19;5090888;28;20199;-69
2024/01/12 12:21:00;;;;;;;4.00;1.53;;;;;;;6.60;60.67;99610.63;5090330;28;20294;-69
2024/01/12 12:23:29;;;;;;;1.20;1.10;;;;;;;6.59;64.55;99611.50;5090578;28;20207;-69
2024/01/12 12:25:56;;;;;;;1.57;0.93;;;;;;;6.61;65.22;99609.75;5092040;28;20678;-69
2024/01/12 12:28:22;;;;;;;1.30;1.30;;;;;;;6.27;63.27;99594.81;5090893;28;20264;-68
2024/01/12 12:30:52;;;;;;;2.63;1.50;;;;;;;5.97;63.70;99615.47;5087477;28;20196;-69